sensor_id;sensor_type;location;lat;lon;timestamp;P1;durP1;ratioP1;P2;durP2;ratioP2
16579;SDS011;8402;51.466;6.806;2022-07-29T00:01:40;7.13;;;1.80;;
16579;SDS011;8402;51.466;6.806;2022-07-29T00:04:10;4.70;;;1.55;;
16579;SDS011;8402;51.466;6.806;2022-07-29T00:06:39;4.82;;;1.60;;
16579;SDS011;8402;51.466;6.806;2022-07-29T00:09:08;2.75;;;1.35;;
16579;SDS011;8402;51.466;6.806;2022-07-29T00:11:36;3.97;;;1.48;;
16579;SDS011;8402;51.466;6.806;2022-07-29T00:14:04;2.78;;;1.80;;
16579;SDS011;8402;51.466;6.806;2022-07-29T00:16:32;4.68;;;1.67;;
16579;SDS011;8402;51.466;6.806;2022-07-29T00:19:00;4.82;;;1.67;;
16579;SDS011;8402;51.466;6.806;2022-07-29T00:21:29;2.45;;;1.60;;
16579;SDS011;8402;51.466;6.806;2022-07-29T00:23:57;3.53;;;1.40;;
16579;SDS011;8402;51.466;6.806;2022-07-29T00:26:25;5.68;;;1.63;;
16579;SDS011;8402;51.466;6.806;2022-07-29T00:28:58;3.47;;;1.50;;
16579;SDS011;8402;51.466;6.806;2022-07-29T00:31:46;3.90;;;1.50;;
16579;SDS011;8402;51.466;6.806;2022-07-29T00:34:14;3.05;;;1.40;;
16579;SDS011;8402;51.466;6.806;2022-07-29T00:36:57;2.45;;;1.40;;
16579;SDS011;8402;51.466;6.806;2022-07-29T00:39:25;4.85;;;1.65;;
16579;SDS011;8402;51.466;6.806;2022-07-29T00:41:54;2.65;;;1.50;;
16579;SDS011;8402;51.466;6.806;2022-07-29T00:44:22;4.80;;;1.70;;
16579;SDS011;8402;51.466;6.806;2022-07-29T00:46:49;5.20;;;1.95;;
16579;SDS011;8402;51.466;6.806;2022-07-29T00:49:17;6.25;;;1.50;;
16579;SDS011;8402;51.466;6.806;2022-07-29T00:51:45;3.53;;;1.60;;
16579;SDS011;8402;51.466;6.806;2022-07-29T00:54:16;6.82;;;1.65;;
16579;SDS011;8402;51.466;6.806;2022-07-29T00:56:44;10.70;;;1.63;;
16579;SDS011;8402;51.466;6.806;2022-07-29T00:59:12;4.20;;;1.60;;
16579;SDS011;8402;51.466;6.806;2022-07-29T01:01:40;4.32;;;1.48;;
16579;SDS011;8402;51.466;6.806;2022-07-29T01:04:08;6.82;;;1.88;;
16579;SDS011;8402;51.466;6.806;2022-07-29T01:06:36;4.78;;;1.60;;
16579;SDS011;8402;51.466;6.806;2022-07-29T01:09:04;3.05;;;1.65;;
16579;SDS011;8402;51.466;6.806;2022-07-29T01:11:34;4.22;;;1.98;;
16579;SDS011;8402;51.466;6.806;2022-07-29T01:14:03;3.70;;;1.30;;
16579;SDS011;8402;51.466;6.806;2022-07-29T01:16:35;8.02;;;1.40;;
16579;SDS011;8402;51.466;6.806;2022-07-29T01:19:13;2.40;;;1.50;;
16579;SDS011;8402;51.466;6.806;2022-07-29T01:21:59;3.20;;;1.40;;
16579;SDS011;8402;51.466;6.806;2022-07-29T01:24:45;2.40;;;1.35;;
16579;SDS011;8402;51.466;6.806;2022-07-29T01:27:41;6.35;;;1.60;;
16579;SDS011;8402;51.466;6.806;2022-07-29T01:30:20;7.57;;;1.58;;
16579;SDS011;8402;51.466;6.806;2022-07-29T01:32:51;4.80;;;1.60;;
16579;SDS011;8402;51.466;6.806;2022-07-29T01:35:23;4.85;;;1.25;;
16579;SDS011;8402;51.466;6.806;2022-07-29T01:37:55;5.07;;;1.70;;
16579;SDS011;8402;51.466;6.806;2022-07-29T01:40:29;5.50;;;1.83;;
16579;SDS011;8402;51.466;6.806;2022-07-29T01:43:03;3.35;;;1.30;;
16579;SDS011;8402;51.466;6.806;2022-07-29T01:45:38;5.10;;;1.50;;
16579;SDS011;8402;51.466;6.806;2022-07-29T01:48:10;4.40;;;1.63;;
16579;SDS011;8402;51.466;6.806;2022-07-29T01:50:42;6.55;;;1.58;;
16579;SDS011;8402;51.466;6.806;2022-07-29T01:53:17;5.18;;;1.90;;
16579;SDS011;8402;51.466;6.806;2022-07-29T01:56:01;4.88;;;1.50;;
16579;SDS011;8402;51.466;6.806;2022-07-29T01:58:31;4.95;;;1.83;;
16579;SDS011;8402;51.466;6.806;2022-07-29T02:01:01;6.75;;;1.80;;
16579;SDS011;8402;51.466;6.806;2022-07-29T02:03:30;2.33;;;1.48;;
16579;SDS011;8402;51.466;6.806;2022-07-29T02:06:00;5.13;;;1.70;;
16579;SDS011;8402;51.466;6.806;2022-07-29T02:08:30;5.80;;;1.67;;
16579;SDS011;8402;51.466;6.806;2022-07-29T02:11:00;6.97;;;1.90;;
16579;SDS011;8402;51.466;6.806;2022-07-29T02:13:31;6.45;;;1.70;;
16579;SDS011;8402;51.466;6.806;2022-07-29T02:16:03;8.02;;;1.95;;
16579;SDS011;8402;51.466;6.806;2022-07-29T02:18:34;4.38;;;2.05;;
16579;SDS011;8402;51.466;6.806;2022-07-29T02:21:04;3.58;;;1.40;;
16579;SDS011;8402;51.466;6.806;2022-07-29T02:23:40;7.30;;;1.95;;
16579;SDS011;8402;51.466;6.806;2022-07-29T02:26:17;4.60;;;1.67;;
16579;SDS011;8402;51.466;6.806;2022-07-29T02:28:47;5.60;;;1.67;;
16579;SDS011;8402;51.466;6.806;2022-07-29T02:31:18;10.75;;;1.80;;
16579;SDS011;8402;51.466;6.806;2022-07-29T02:33:49;4.97;;;1.90;;
16579;SDS011;8402;51.466;6.806;2022-07-29T02:36:21;5.85;;;1.65;;
16579;SDS011;8402;51.466;6.806;2022-07-29T02:38:50;3.00;;;1.77;;
16579;SDS011;8402;51.466;6.806;2022-07-29T02:41:20;8.02;;;2.08;;
16579;SDS011;8402;51.466;6.806;2022-07-29T02:43:52;5.75;;;1.92;;
16579;SDS011;8402;51.466;6.806;2022-07-29T02:46:26;4.25;;;1.70;;
16579;SDS011;8402;51.466;6.806;2022-07-29T02:49:02;4.63;;;1.60;;
16579;SDS011;8402;51.466;6.806;2022-07-29T02:51:37;4.65;;;1.50;;
16579;SDS011;8402;51.466;6.806;2022-07-29T02:54:11;2.58;;;1.50;;
16579;SDS011;8402;51.466;6.806;2022-07-29T02:56:54;3.85;;;1.67;;
16579;SDS011;8402;51.466;6.806;2022-07-29T02:59:26;6.18;;;1.70;;
16579;SDS011;8402;51.466;6.806;2022-07-29T03:01:59;7.32;;;2.17;;
16579;SDS011;8402;51.466;6.806;2022-07-29T03:04:29;6.05;;;2.38;;
16579;SDS011;8402;51.466;6.806;2022-07-29T03:06:59;6.70;;;2.28;;
16579;SDS011;8402;51.466;6.806;2022-07-29T03:09:28;6.50;;;2.33;;
16579;SDS011;8402;51.466;6.806;2022-07-29T03:11:57;6.60;;;1.80;;
16579;SDS011;8402;51.466;6.806;2022-07-29T03:14:26;4.95;;;1.63;;
16579;SDS011;8402;51.466;6.806;2022-07-29T03:16:54;5.20;;;1.42;;
16579;SDS011;8402;51.466;6.806;2022-07-29T03:19:24;2.42;;;1.50;;
16579;SDS011;8402;51.466;6.806;2022-07-29T03:21:54;3.38;;;1.58;;
16579;SDS011;8402;51.466;6.806;2022-07-29T03:24:25;3.05;;;1.38;;
16579;SDS011;8402;51.466;6.806;2022-07-29T03:26:54;4.47;;;1.35;;
16579;SDS011;8402;51.466;6.806;2022-07-29T03:29:22;3.20;;;1.30;;
16579;SDS011;8402;51.466;6.806;2022-07-29T03:31:58;2.53;;;1.45;;
16579;SDS011;8402;51.466;6.806;2022-07-29T03:34:29;6.93;;;1.67;;
16579;SDS011;8402;51.466;6.806;2022-07-29T03:36:57;3.03;;;1.58;;
16579;SDS011;8402;51.466;6.806;2022-07-29T03:39:27;6.85;;;1.70;;
16579;SDS011;8402;51.466;6.806;2022-07-29T03:41:58;2.80;;;1.20;;
16579;SDS011;8402;51.466;6.806;2022-07-29T03:44:28;3.55;;;1.40;;
16579;SDS011;8402;51.466;6.806;2022-07-29T03:46:58;4.35;;;1.73;;
16579;SDS011;8402;51.466;6.806;2022-07-29T03:49:30;5.03;;;1.60;;
16579;SDS011;8402;51.466;6.806;2022-07-29T03:51:59;2.83;;;1.60;;
16579;SDS011;8402;51.466;6.806;2022-07-29T03:54:28;4.47;;;1.45;;
16579;SDS011;8402;51.466;6.806;2022-07-29T03:56:56;2.60;;;1.70;;
16579;SDS011;8402;51.466;6.806;2022-07-29T03:59:27;3.65;;;1.70;;
16579;SDS011;8402;51.466;6.806;2022-07-29T04:01:55;4.72;;;2.00;;
16579;SDS011;8402;51.466;6.806;2022-07-29T04:04:24;6.25;;;1.88;;
16579;SDS011;8402;51.466;6.806;2022-07-29T04:06:55;4.15;;;1.65;;
16579;SDS011;8402;51.466;6.806;2022-07-29T04:09:23;8.02;;;1.90;;
16579;SDS011;8402;51.466;6.806;2022-07-29T04:11:51;6.70;;;1.70;;
16579;SDS011;8402;51.466;6.806;2022-07-29T04:14:29;7.55;;;1.85;;
16579;SDS011;8402;51.466;6.806;2022-07-29T04:16:57;6.70;;;1.85;;
16579;SDS011;8402;51.466;6.806;2022-07-29T04:19:25;5.22;;;1.80;;
16579;SDS011;8402;51.466;6.806;2022-07-29T04:21:54;4.22;;;1.90;;
16579;SDS011;8402;51.466;6.806;2022-07-29T04:24:23;5.45;;;1.73;;
16579;SDS011;8402;51.466;6.806;2022-07-29T04:26:51;6.20;;;1.80;;
16579;SDS011;8402;51.466;6.806;2022-07-29T04:29:19;4.53;;;1.98;;
16579;SDS011;8402;51.466;6.806;2022-07-29T04:31:47;6.15;;;1.85;;
16579;SDS011;8402;51.466;6.806;2022-07-29T04:34:15;3.40;;;1.77;;
16579;SDS011;8402;51.466;6.806;2022-07-29T04:36:44;2.90;;;2.10;;
16579;SDS011;8402;51.466;6.806;2022-07-29T04:39:13;5.32;;;2.03;;
16579;SDS011;8402;51.466;6.806;2022-07-29T04:41:47;7.80;;;2.17;;
16579;SDS011;8402;51.466;6.806;2022-07-29T04:44:17;3.67;;;1.85;;
16579;SDS011;8402;51.466;6.806;2022-07-29T04:46:45;3.67;;;1.73;;
16579;SDS011;8402;51.466;6.806;2022-07-29T04:49:13;6.63;;;2.17;;
16579;SDS011;8402;51.466;6.806;2022-07-29T04:51:42;2.72;;;1.80;;
16579;SDS011;8402;51.466;6.806;2022-07-29T04:54:10;7.07;;;1.90;;
16579;SDS011;8402;51.466;6.806;2022-07-29T04:56:39;3.58;;;1.90;;
16579;SDS011;8402;51.466;6.806;2022-07-29T04:59:07;8.15;;;2.35;;
16579;SDS011;8402;51.466;6.806;2022-07-29T05:01:38;6.22;;;1.90;;
16579;SDS011;8402;51.466;6.806;2022-07-29T05:04:06;6.03;;;1.73;;
16579;SDS011;8402;51.466;6.806;2022-07-29T05:06:34;4.70;;;2.10;;
16579;SDS011;8402;51.466;6.806;2022-07-29T05:09:02;3.13;;;1.83;;
16579;SDS011;8402;51.466;6.806;2022-07-29T05:11:30;2.17;;;1.65;;
16579;SDS011;8402;51.466;6.806;2022-07-29T05:13:59;6.63;;;1.95;;
16579;SDS011;8402;51.466;6.806;2022-07-29T05:16:28;5.10;;;1.93;;
16579;SDS011;8402;51.466;6.806;2022-07-29T05:18:56;4.82;;;1.77;;
16579;SDS011;8402;51.466;6.806;2022-07-29T05:21:24;9.25;;;2.60;;
16579;SDS011;8402;51.466;6.806;2022-07-29T05:23:52;4.55;;;2.00;;
16579;SDS011;8402;51.466;6.806;2022-07-29T05:26:20;5.28;;;1.75;;
16579;SDS011;8402;51.466;6.806;2022-07-29T05:28:48;3.50;;;1.93;;
16579;SDS011;8402;51.466;6.806;2022-07-29T05:31:18;6.05;;;2.10;;
16579;SDS011;8402;51.466;6.806;2022-07-29T05:33:46;4.07;;;1.85;;
16579;SDS011;8402;51.466;6.806;2022-07-29T05:36:14;4.85;;;1.90;;
16579;SDS011;8402;51.466;6.806;2022-07-29T05:38:42;6.32;;;2.08;;
16579;SDS011;8402;51.466;6.806;2022-07-29T05:41:09;6.35;;;1.90;;
16579;SDS011;8402;51.466;6.806;2022-07-29T05:43:38;5.87;;;2.10;;
16579;SDS011;8402;51.466;6.806;2022-07-29T05:46:06;4.00;;;2.20;;
16579;SDS011;8402;51.466;6.806;2022-07-29T05:48:35;7.40;;;2.20;;
16579;SDS011;8402;51.466;6.806;2022-07-29T05:51:04;9.43;;;2.88;;
16579;SDS011;8402;51.466;6.806;2022-07-29T05:53:32;11.02;;;2.15;;
16579;SDS011;8402;51.466;6.806;2022-07-29T05:56:02;9.52;;;2.45;;
16579;SDS011;8402;51.466;6.806;2022-07-29T05:58:31;10.65;;;2.45;;
16579;SDS011;8402;51.466;6.806;2022-07-29T06:01:00;8.93;;;4.03;;
16579;SDS011;8402;51.466;6.806;2022-07-29T06:03:28;5.00;;;3.10;;
16579;SDS011;8402;51.466;6.806;2022-07-29T06:05:57;7.13;;;2.70;;
16579;SDS011;8402;51.466;6.806;2022-07-29T06:08:25;5.53;;;2.80;;
16579;SDS011;8402;51.466;6.806;2022-07-29T06:10:53;5.23;;;2.60;;
16579;SDS011;8402;51.466;6.806;2022-07-29T06:13:21;6.90;;;2.60;;
16579;SDS011;8402;51.466;6.806;2022-07-29T06:15:49;4.25;;;2.55;;
16579;SDS011;8402;51.466;6.806;2022-07-29T06:18:17;13.37;;;3.10;;
16579;SDS011;8402;51.466;6.806;2022-07-29T06:20:47;10.63;;;2.97;;
16579;SDS011;8402;51.466;6.806;2022-07-29T06:23:16;8.43;;;2.70;;
16579;SDS011;8402;51.466;6.806;2022-07-29T06:25:44;10.07;;;3.00;;
16579;SDS011;8402;51.466;6.806;2022-07-29T06:28:12;10.07;;;3.20;;
16579;SDS011;8402;51.466;6.806;2022-07-29T06:30:40;9.15;;;2.63;;
16579;SDS011;8402;51.466;6.806;2022-07-29T06:33:08;7.75;;;2.80;;
16579;SDS011;8402;51.466;6.806;2022-07-29T06:35:36;16.77;;;8.50;;
16579;SDS011;8402;51.466;6.806;2022-07-29T06:38:07;5.77;;;2.33;;
16579;SDS011;8402;51.466;6.806;2022-07-29T06:40:57;6.70;;;2.72;;
16579;SDS011;8402;51.466;6.806;2022-07-29T06:43:31;7.97;;;2.55;;
16579;SDS011;8402;51.466;6.806;2022-07-29T06:46:17;5.90;;;2.45;;
16579;SDS011;8402;51.466;6.806;2022-07-29T06:48:46;5.60;;;2.83;;
16579;SDS011;8402;51.466;6.806;2022-07-29T06:51:15;6.47;;;2.88;;
16579;SDS011;8402;51.466;6.806;2022-07-29T06:53:48;7.28;;;3.15;;
16579;SDS011;8402;51.466;6.806;2022-07-29T06:56:29;4.93;;;3.05;;
16579;SDS011;8402;51.466;6.806;2022-07-29T06:59:05;7.22;;;3.15;;
16579;SDS011;8402;51.466;6.806;2022-07-29T07:01:34;7.75;;;2.75;;
16579;SDS011;8402;51.466;6.806;2022-07-29T07:04:03;5.22;;;3.15;;
16579;SDS011;8402;51.466;6.806;2022-07-29T07:06:31;3.60;;;2.47;;
16579;SDS011;8402;51.466;6.806;2022-07-29T07:08:59;11.57;;;3.90;;
16579;SDS011;8402;51.466;6.806;2022-07-29T07:11:27;9.07;;;2.92;;
16579;SDS011;8402;51.466;6.806;2022-07-29T07:13:56;8.82;;;3.22;;
16579;SDS011;8402;51.466;6.806;2022-07-29T07:16:29;7.72;;;3.05;;
16579;SDS011;8402;51.466;6.806;2022-07-29T07:18:57;4.80;;;3.33;;
16579;SDS011;8402;51.466;6.806;2022-07-29T07:21:26;8.10;;;3.40;;
16579;SDS011;8402;51.466;6.806;2022-07-29T07:23:56;9.63;;;3.33;;
16579;SDS011;8402;51.466;6.806;2022-07-29T07:26:24;12.57;;;3.85;;
16579;SDS011;8402;51.466;6.806;2022-07-29T07:28:53;9.23;;;3.20;;
16579;SDS011;8402;51.466;6.806;2022-07-29T07:31:22;8.48;;;3.45;;
16579;SDS011;8402;51.466;6.806;2022-07-29T07:33:51;9.77;;;3.88;;
16579;SDS011;8402;51.466;6.806;2022-07-29T07:36:19;9.88;;;3.78;;
16579;SDS011;8402;51.466;6.806;2022-07-29T07:38:48;9.95;;;4.32;;
16579;SDS011;8402;51.466;6.806;2022-07-29T07:41:16;8.43;;;3.65;;
16579;SDS011;8402;51.466;6.806;2022-07-29T07:43:45;10.63;;;3.90;;
16579;SDS011;8402;51.466;6.806;2022-07-29T07:46:12;11.48;;;4.00;;
16579;SDS011;8402;51.466;6.806;2022-07-29T07:48:42;13.82;;;4.00;;
16579;SDS011;8402;51.466;6.806;2022-07-29T07:51:11;8.98;;;4.10;;
16579;SDS011;8402;51.466;6.806;2022-07-29T07:53:39;11.65;;;4.75;;
16579;SDS011;8402;51.466;6.806;2022-07-29T07:56:07;11.15;;;4.20;;
16579;SDS011;8402;51.466;6.806;2022-07-29T07:58:37;8.82;;;3.78;;
16579;SDS011;8402;51.466;6.806;2022-07-29T08:01:05;9.32;;;3.42;;
16579;SDS011;8402;51.466;6.806;2022-07-29T08:03:34;9.75;;;3.75;;
16579;SDS011;8402;51.466;6.806;2022-07-29T08:06:04;6.95;;;3.70;;
16579;SDS011;8402;51.466;6.806;2022-07-29T08:08:33;7.80;;;3.30;;
16579;SDS011;8402;51.466;6.806;2022-07-29T08:11:01;14.20;;;4.22;;
16579;SDS011;8402;51.466;6.806;2022-07-29T08:13:35;7.03;;;3.80;;
16579;SDS011;8402;51.466;6.806;2022-07-29T08:16:04;13.20;;;4.90;;
16579;SDS011;8402;51.466;6.806;2022-07-29T08:18:39;9.80;;;4.45;;
16579;SDS011;8402;51.466;6.806;2022-07-29T08:21:10;9.50;;;3.72;;
16579;SDS011;8402;51.466;6.806;2022-07-29T08:23:40;11.02;;;4.25;;
16579;SDS011;8402;51.466;6.806;2022-07-29T08:26:24;7.70;;;4.18;;
16579;SDS011;8402;51.466;6.806;2022-07-29T08:28:52;12.57;;;4.53;;
16579;SDS011;8402;51.466;6.806;2022-07-29T08:31:20;10.75;;;4.25;;
16579;SDS011;8402;51.466;6.806;2022-07-29T08:33:48;8.20;;;4.25;;
16579;SDS011;8402;51.466;6.806;2022-07-29T08:36:18;8.85;;;4.32;;
16579;SDS011;8402;51.466;6.806;2022-07-29T08:38:47;8.43;;;4.13;;
16579;SDS011;8402;51.466;6.806;2022-07-29T08:41:16;7.40;;;3.97;;
16579;SDS011;8402;51.466;6.806;2022-07-29T08:43:45;13.35;;;3.85;;
16579;SDS011;8402;51.466;6.806;2022-07-29T08:46:13;8.98;;;4.57;;
16579;SDS011;8402;51.466;6.806;2022-07-29T08:48:41;13.00;;;3.95;;
16579;SDS011;8402;51.466;6.806;2022-07-29T08:51:13;11.13;;;4.82;;
16579;SDS011;8402;51.466;6.806;2022-07-29T08:53:43;8.13;;;4.40;;
16579;SDS011;8402;51.466;6.806;2022-07-29T08:56:14;6.15;;;4.20;;
16579;SDS011;8402;51.466;6.806;2022-07-29T08:58:44;10.13;;;4.10;;
16579;SDS011;8402;51.466;6.806;2022-07-29T09:01:22;7.75;;;4.00;;
16579;SDS011;8402;51.466;6.806;2022-07-29T09:04:02;15.40;;;4.97;;
16579;SDS011;8402;51.466;6.806;2022-07-29T09:06:32;10.43;;;4.63;;
16579;SDS011;8402;51.466;6.806;2022-07-29T09:09:06;8.93;;;4.68;;
16579;SDS011;8402;51.466;6.806;2022-07-29T09:11:35;10.48;;;5.00;;
16579;SDS011;8402;51.466;6.806;2022-07-29T09:14:03;6.82;;;4.75;;
16579;SDS011;8402;51.466;6.806;2022-07-29T09:16:46;8.02;;;4.63;;
16579;SDS011;8402;51.466;6.806;2022-07-29T09:19:20;7.18;;;4.80;;
16579;SDS011;8402;51.466;6.806;2022-07-29T09:21:50;8.18;;;4.60;;
16579;SDS011;8402;51.466;6.806;2022-07-29T09:24:44;13.50;;;4.72;;
16579;SDS011;8402;51.466;6.806;2022-07-29T09:27:20;8.25;;;4.80;;
16579;SDS011;8402;51.466;6.806;2022-07-29T09:29:59;12.45;;;5.00;;
16579;SDS011;8402;51.466;6.806;2022-07-29T09:32:29;15.32;;;4.90;;
16579;SDS011;8402;51.466;6.806;2022-07-29T09:37:50;10.00;;;4.90;;
16579;SDS011;8402;51.466;6.806;2022-07-29T09:40:20;7.18;;;4.50;;
16579;SDS011;8402;51.466;6.806;2022-07-29T09:42:50;8.73;;;4.88;;
16579;SDS011;8402;51.466;6.806;2022-07-29T09:45:28;11.90;;;5.03;;
16579;SDS011;8402;51.466;6.806;2022-07-29T09:47:58;9.05;;;5.82;;
16579;SDS011;8402;51.466;6.806;2022-07-29T09:50:36;7.78;;;4.60;;
16579;SDS011;8402;51.466;6.806;2022-07-29T09:53:05;9.93;;;5.50;;
16579;SDS011;8402;51.466;6.806;2022-07-29T09:55:47;8.70;;;4.90;;
16579;SDS011;8402;51.466;6.806;2022-07-29T09:58:17;8.18;;;4.72;;
16579;SDS011;8402;51.466;6.806;2022-07-29T10:00:47;13.25;;;5.22;;
16579;SDS011;8402;51.466;6.806;2022-07-29T10:03:16;9.15;;;4.90;;
16579;SDS011;8402;51.466;6.806;2022-07-29T10:05:44;7.97;;;4.68;;
16579;SDS011;8402;51.466;6.806;2022-07-29T10:08:13;8.30;;;4.43;;
16579;SDS011;8402;51.466;6.806;2022-07-29T10:10:42;9.75;;;4.53;;
16579;SDS011;8402;51.466;6.806;2022-07-29T10:13:12;5.93;;;4.05;;
16579;SDS011;8402;51.466;6.806;2022-07-29T10:15:42;8.52;;;4.50;;
16579;SDS011;8402;51.466;6.806;2022-07-29T10:18:13;9.20;;;4.32;;
16579;SDS011;8402;51.466;6.806;2022-07-29T10:20:44;6.53;;;4.75;;
16579;SDS011;8402;51.466;6.806;2022-07-29T10:23:12;8.40;;;5.07;;
16579;SDS011;8402;51.466;6.806;2022-07-29T10:25:40;8.15;;;5.22;;
16579;SDS011;8402;51.466;6.806;2022-07-29T10:28:13;8.18;;;4.57;;
16579;SDS011;8402;51.466;6.806;2022-07-29T10:30:42;8.00;;;3.90;;
16579;SDS011;8402;51.466;6.806;2022-07-29T10:33:18;7.25;;;4.05;;
16579;SDS011;8402;51.466;6.806;2022-07-29T10:35:59;5.72;;;3.50;;
16579;SDS011;8402;51.466;6.806;2022-07-29T10:38:45;5.50;;;3.25;;
16579;SDS011;8402;51.466;6.806;2022-07-29T10:41:28;5.53;;;3.70;;
16579;SDS011;8402;51.466;6.806;2022-07-29T10:44:17;5.57;;;3.15;;
16579;SDS011;8402;51.466;6.806;2022-07-29T10:46:49;7.03;;;3.75;;
16579;SDS011;8402;51.466;6.806;2022-07-29T10:49:18;7.07;;;3.97;;
16579;SDS011;8402;51.466;6.806;2022-07-29T10:51:50;6.35;;;3.92;;
16579;SDS011;8402;51.466;6.806;2022-07-29T10:54:40;7.40;;;3.97;;
16579;SDS011;8402;51.466;6.806;2022-07-29T10:57:18;7.38;;;3.60;;
16579;SDS011;8402;51.466;6.806;2022-07-29T11:00:29;9.07;;;3.90;;
16579;SDS011;8402;51.466;6.806;2022-07-29T11:02:58;8.98;;;3.60;;
16579;SDS011;8402;51.466;6.806;2022-07-29T11:05:54;6.43;;;3.40;;
16579;SDS011;8402;51.466;6.806;2022-07-29T11:08:25;6.97;;;3.63;;
16579;SDS011;8402;51.466;6.806;2022-07-29T11:14:12;8.57;;;3.17;;
16579;SDS011;8402;51.466;6.806;2022-07-29T11:17:01;7.07;;;3.20;;
16579;SDS011;8402;51.466;6.806;2022-07-29T11:19:32;5.70;;;2.80;;
16579;SDS011;8402;51.466;6.806;2022-07-29T11:22:07;7.60;;;2.72;;
16579;SDS011;8402;51.466;6.806;2022-07-29T11:24:36;7.03;;;2.50;;
16579;SDS011;8402;51.466;6.806;2022-07-29T11:27:15;5.20;;;2.50;;
16579;SDS011;8402;51.466;6.806;2022-07-29T11:29:56;6.70;;;2.45;;
16579;SDS011;8402;51.466;6.806;2022-07-29T11:32:36;4.72;;;2.50;;
16579;SDS011;8402;51.466;6.806;2022-07-29T11:35:13;5.22;;;2.70;;
16579;SDS011;8402;51.466;6.806;2022-07-29T11:37:44;6.60;;;2.83;;
16579;SDS011;8402;51.466;6.806;2022-07-29T11:40:22;7.05;;;2.95;;
16579;SDS011;8402;51.466;6.806;2022-07-29T11:42:51;6.45;;;3.00;;
16579;SDS011;8402;51.466;6.806;2022-07-29T11:45:45;14.18;;;3.10;;
16579;SDS011;8402;51.466;6.806;2022-07-29T11:48:17;5.93;;;3.08;;
16579;SDS011;8402;51.466;6.806;2022-07-29T11:50:55;6.13;;;3.17;;
16579;SDS011;8402;51.466;6.806;2022-07-29T11:53:24;5.30;;;2.85;;
16579;SDS011;8402;51.466;6.806;2022-07-29T11:55:58;6.28;;;2.88;;
16579;SDS011;8402;51.466;6.806;2022-07-29T11:58:28;5.43;;;2.58;;
16579;SDS011;8402;51.466;6.806;2022-07-29T12:00:57;8.05;;;2.70;;
16579;SDS011;8402;51.466;6.806;2022-07-29T12:03:32;4.90;;;2.20;;
16579;SDS011;8402;51.466;6.806;2022-07-29T12:06:02;4.60;;;2.30;;
16579;SDS011;8402;51.466;6.806;2022-07-29T12:08:39;3.55;;;2.35;;
16579;SDS011;8402;51.466;6.806;2022-07-29T12:11:15;3.10;;;2.20;;
16579;SDS011;8402;51.466;6.806;2022-07-29T12:13:47;6.45;;;2.65;;
16579;SDS011;8402;51.466;6.806;2022-07-29T12:16:16;5.63;;;3.38;;
16579;SDS011;8402;51.466;6.806;2022-07-29T12:18:57;7.03;;;4.70;;
16579;SDS011;8402;51.466;6.806;2022-07-29T12:21:27;7.93;;;3.92;;
16579;SDS011;8402;51.466;6.806;2022-07-29T12:23:56;6.00;;;3.33;;
16579;SDS011;8402;51.466;6.806;2022-07-29T12:26:34;8.25;;;4.07;;
16579;SDS011;8402;51.466;6.806;2022-07-29T12:29:05;10.63;;;4.13;;
16579;SDS011;8402;51.466;6.806;2022-07-29T12:31:41;8.00;;;4.25;;
16579;SDS011;8402;51.466;6.806;2022-07-29T12:34:26;6.25;;;3.65;;
16579;SDS011;8402;51.466;6.806;2022-07-29T12:36:55;8.82;;;3.53;;
16579;SDS011;8402;51.466;6.806;2022-07-29T12:39:24;6.90;;;3.92;;
16579;SDS011;8402;51.466;6.806;2022-07-29T12:41:54;6.45;;;3.90;;
16579;SDS011;8402;51.466;6.806;2022-07-29T12:44:42;10.88;;;3.90;;
16579;SDS011;8402;51.466;6.806;2022-07-29T12:47:11;11.77;;;4.20;;
16579;SDS011;8402;51.466;6.806;2022-07-29T12:49:41;5.90;;;3.58;;
16579;SDS011;8402;51.466;6.806;2022-07-29T12:52:25;6.10;;;3.45;;
16579;SDS011;8402;51.466;6.806;2022-07-29T12:54:54;6.97;;;3.83;;
16579;SDS011;8402;51.466;6.806;2022-07-29T12:57:22;6.00;;;3.42;;
16579;SDS011;8402;51.466;6.806;2022-07-29T13:00:04;7.80;;;3.80;;
16579;SDS011;8402;51.466;6.806;2022-07-29T13:02:36;4.68;;;4.10;;
16579;SDS011;8402;51.466;6.806;2022-07-29T13:05:07;8.50;;;3.50;;
16579;SDS011;8402;51.466;6.806;2022-07-29T13:07:36;5.50;;;3.40;;
16579;SDS011;8402;51.466;6.806;2022-07-29T13:10:22;7.38;;;3.30;;
16579;SDS011;8402;51.466;6.806;2022-07-29T13:13:06;7.20;;;4.15;;
16579;SDS011;8402;51.466;6.806;2022-07-29T13:15:36;6.35;;;2.85;;
16579;SDS011;8402;51.466;6.806;2022-07-29T13:18:26;6.10;;;3.28;;
16579;SDS011;8402;51.466;6.806;2022-07-29T13:20:56;7.22;;;3.50;;
16579;SDS011;8402;51.466;6.806;2022-07-29T13:23:24;5.47;;;3.20;;
16579;SDS011;8402;51.466;6.806;2022-07-29T13:25:52;8.93;;;3.70;;
16579;SDS011;8402;51.466;6.806;2022-07-29T13:28:20;6.60;;;3.28;;
16579;SDS011;8402;51.466;6.806;2022-07-29T13:30:48;8.95;;;3.55;;
16579;SDS011;8402;51.466;6.806;2022-07-29T13:33:16;7.13;;;3.88;;
16579;SDS011;8402;51.466;6.806;2022-07-29T13:35:44;6.75;;;3.60;;
16579;SDS011;8402;51.466;6.806;2022-07-29T13:38:15;5.35;;;3.60;;
16579;SDS011;8402;51.466;6.806;2022-07-29T13:40:43;7.07;;;3.45;;
16579;SDS011;8402;51.466;6.806;2022-07-29T13:43:12;11.43;;;4.63;;
16579;SDS011;8402;51.466;6.806;2022-07-29T13:45:40;6.10;;;3.33;;
16579;SDS011;8402;51.466;6.806;2022-07-29T13:48:08;7.40;;;3.58;;
16579;SDS011;8402;51.466;6.806;2022-07-29T13:50:37;4.97;;;2.90;;
16579;SDS011;8402;51.466;6.806;2022-07-29T13:53:05;3.97;;;2.97;;
16579;SDS011;8402;51.466;6.806;2022-07-29T13:55:34;4.30;;;2.40;;
16579;SDS011;8402;51.466;6.806;2022-07-29T13:58:02;4.50;;;2.63;;
16579;SDS011;8402;51.466;6.806;2022-07-29T14:00:30;5.72;;;2.65;;
16579;SDS011;8402;51.466;6.806;2022-07-29T14:02:59;6.90;;;2.85;;
16579;SDS011;8402;51.466;6.806;2022-07-29T14:05:26;7.35;;;2.70;;
16579;SDS011;8402;51.466;6.806;2022-07-29T14:07:54;4.90;;;2.70;;
16579;SDS011;8402;51.466;6.806;2022-07-29T14:10:23;3.65;;;2.22;;
16579;SDS011;8402;51.466;6.806;2022-07-29T14:12:52;5.88;;;2.80;;
16579;SDS011;8402;51.466;6.806;2022-07-29T14:15:20;4.43;;;2.90;;
16579;SDS011;8402;51.466;6.806;2022-07-29T14:17:49;5.53;;;3.03;;
16579;SDS011;8402;51.466;6.806;2022-07-29T14:20:17;6.03;;;2.60;;
16579;SDS011;8402;51.466;6.806;2022-07-29T14:22:46;9.20;;;3.08;;
16579;SDS011;8402;51.466;6.806;2022-07-29T14:25:15;9.10;;;3.38;;
16579;SDS011;8402;51.466;6.806;2022-07-29T14:27:46;7.10;;;2.70;;
16579;SDS011;8402;51.466;6.806;2022-07-29T14:30:15;4.75;;;2.72;;
16579;SDS011;8402;51.466;6.806;2022-07-29T14:32:43;8.77;;;3.25;;
16579;SDS011;8402;51.466;6.806;2022-07-29T14:35:11;5.18;;;2.67;;
16579;SDS011;8402;51.466;6.806;2022-07-29T14:37:39;5.80;;;2.72;;
16579;SDS011;8402;51.466;6.806;2022-07-29T14:40:08;5.07;;;2.67;;
16579;SDS011;8402;51.466;6.806;2022-07-29T14:42:37;4.15;;;2.60;;
16579;SDS011;8402;51.466;6.806;2022-07-29T14:45:06;9.18;;;2.60;;
16579;SDS011;8402;51.466;6.806;2022-07-29T14:47:36;6.80;;;2.50;;
16579;SDS011;8402;51.466;6.806;2022-07-29T14:50:05;7.25;;;3.05;;
16579;SDS011;8402;51.466;6.806;2022-07-29T14:52:34;5.72;;;2.90;;
16579;SDS011;8402;51.466;6.806;2022-07-29T14:55:02;7.45;;;2.85;;
16579;SDS011;8402;51.466;6.806;2022-07-29T14:57:44;4.88;;;3.00;;
16579;SDS011;8402;51.466;6.806;2022-07-29T15:00:12;8.15;;;3.08;;
16579;SDS011;8402;51.466;6.806;2022-07-29T15:02:42;4.38;;;2.50;;
16579;SDS011;8402;51.466;6.806;2022-07-29T15:05:27;7.85;;;3.00;;
16579;SDS011;8402;51.466;6.806;2022-07-29T15:07:56;5.00;;;2.70;;
16579;SDS011;8402;51.466;6.806;2022-07-29T15:10:24;7.10;;;3.38;;
16579;SDS011;8402;51.466;6.806;2022-07-29T15:12:53;5.97;;;3.10;;
16579;SDS011;8402;51.466;6.806;2022-07-29T15:15:21;4.18;;;2.92;;
16579;SDS011;8402;51.466;6.806;2022-07-29T15:17:51;5.20;;;2.65;;
16579;SDS011;8402;51.466;6.806;2022-07-29T15:20:19;3.70;;;2.42;;
16579;SDS011;8402;51.466;6.806;2022-07-29T15:22:47;4.85;;;2.85;;
16579;SDS011;8402;51.466;6.806;2022-07-29T15:25:15;5.00;;;2.47;;
16579;SDS011;8402;51.466;6.806;2022-07-29T15:27:43;7.38;;;2.83;;
16579;SDS011;8402;51.466;6.806;2022-07-29T15:30:18;4.72;;;2.50;;
16579;SDS011;8402;51.466;6.806;2022-07-29T15:33:00;3.17;;;2.60;;